sensor_id;sensor_type;location;lat;lon;timestamp;P1;durP1;ratioP1;P2;durP2;ratioP2
10341;SDS011;5216;54.602;18.356;2022-11-25T00:03:39;61.27;;;36.37;;
10341;SDS011;5216;54.602;18.356;2022-11-25T00:08:45;60.47;;;37.70;;
10341;SDS011;5216;54.602;18.356;2022-11-25T00:11:12;59.63;;;36.80;;
10341;SDS011;5216;54.602;18.356;2022-11-25T00:13:39;62.87;;;36.83;;
10341;SDS011;5216;54.602;18.356;2022-11-25T00:16:07;58.77;;;34.37;;
10341;SDS011;5216;54.602;18.356;2022-11-25T00:18:34;53.57;;;31.97;;
10341;SDS011;5216;54.602;18.356;2022-11-25T00:21:07;49.73;;;31.33;;
10341;SDS011;5216;54.602;18.356;2022-11-25T00:23:34;54.53;;;32.97;;
10341;SDS011;5216;54.602;18.356;2022-11-25T00:26:05;54.80;;;33.30;;
10341;SDS011;5216;54.602;18.356;2022-11-25T00:28:32;56.00;;;32.87;;
10341;SDS011;5216;54.602;18.356;2022-11-25T00:31:05;58.00;;;34.00;;
10341;SDS011;5216;54.602;18.356;2022-11-25T00:33:32;53.30;;;34.57;;
10341;SDS011;5216;54.602;18.356;2022-11-25T00:36:02;60.13;;;35.60;;
10341;SDS011;5216;54.602;18.356;2022-11-25T00:38:29;53.70;;;33.83;;
10341;SDS011;5216;54.602;18.356;2022-11-25T00:40:55;53.17;;;31.97;;
10341;SDS011;5216;54.602;18.356;2022-11-25T00:43:42;53.23;;;32.60;;
10341;SDS011;5216;54.602;18.356;2022-11-25T00:46:27;60.07;;;37.93;;
10341;SDS011;5216;54.602;18.356;2022-11-25T00:48:53;58.43;;;34.77;;
10341;SDS011;5216;54.602;18.356;2022-11-25T00:51:20;53.60;;;33.53;;
10341;SDS011;5216;54.602;18.356;2022-11-25T00:53:46;49.03;;;32.00;;
10341;SDS011;5216;54.602;18.356;2022-11-25T00:56:13;48.83;;;30.90;;
10341;SDS011;5216;54.602;18.356;2022-11-25T00:58:40;45.83;;;29.93;;
10341;SDS011;5216;54.602;18.356;2022-11-25T01:01:07;46.63;;;29.53;;
10341;SDS011;5216;54.602;18.356;2022-11-25T01:03:34;47.77;;;29.73;;
10341;SDS011;5216;54.602;18.356;2022-11-25T01:06:11;46.17;;;28.70;;
10341;SDS011;5216;54.602;18.356;2022-11-25T01:08:37;65.57;;;41.87;;
10341;SDS011;5216;54.602;18.356;2022-11-25T01:11:05;64.97;;;38.83;;
10341;SDS011;5216;54.602;18.356;2022-11-25T01:13:32;53.40;;;34.10;;
10341;SDS011;5216;54.602;18.356;2022-11-25T01:16:02;51.93;;;31.60;;
10341;SDS011;5216;54.602;18.356;2022-11-25T01:18:29;44.97;;;29.13;;
10341;SDS011;5216;54.602;18.356;2022-11-25T01:21:03;44.90;;;27.77;;
10341;SDS011;5216;54.602;18.356;2022-11-25T01:23:30;44.20;;;27.30;;
10341;SDS011;5216;54.602;18.356;2022-11-25T01:25:59;60.87;;;37.13;;
10341;SDS011;5216;54.602;18.356;2022-11-25T01:28:26;49.47;;;31.13;;
10341;SDS011;5216;54.602;18.356;2022-11-25T01:31:06;46.67;;;30.50;;
10341;SDS011;5216;54.602;18.356;2022-11-25T01:33:33;44.50;;;27.40;;
10341;SDS011;5216;54.602;18.356;2022-11-25T01:36:00;44.40;;;27.13;;
10341;SDS011;5216;54.602;18.356;2022-11-25T01:38:28;40.30;;;25.23;;
10341;SDS011;5216;54.602;18.356;2022-11-25T01:41:15;41.37;;;26.17;;
10341;SDS011;5216;54.602;18.356;2022-11-25T01:43:42;42.33;;;25.47;;
10341;SDS011;5216;54.602;18.356;2022-11-25T01:48:42;38.53;;;23.30;;
10341;SDS011;5216;54.602;18.356;2022-11-25T01:51:16;33.47;;;22.57;;
10341;SDS011;5216;54.602;18.356;2022-11-25T01:53:44;40.77;;;23.90;;
10341;SDS011;5216;54.602;18.356;2022-11-25T01:56:10;36.83;;;23.27;;
10341;SDS011;5216;54.602;18.356;2022-11-25T01:58:37;43.03;;;25.77;;
10341;SDS011;5216;54.602;18.356;2022-11-25T02:01:04;38.93;;;25.47;;
10341;SDS011;5216;54.602;18.356;2022-11-25T02:03:32;36.13;;;22.73;;
10341;SDS011;5216;54.602;18.356;2022-11-25T02:06:13;37.87;;;23.63;;
10341;SDS011;5216;54.602;18.356;2022-11-25T02:08:42;39.60;;;24.57;;
10341;SDS011;5216;54.602;18.356;2022-11-25T02:11:10;40.83;;;26.13;;
10341;SDS011;5216;54.602;18.356;2022-11-25T02:13:37;37.97;;;23.93;;
10341;SDS011;5216;54.602;18.356;2022-11-25T02:16:04;40.23;;;25.07;;
10341;SDS011;5216;54.602;18.356;2022-11-25T02:18:31;40.00;;;25.23;;
10341;SDS011;5216;54.602;18.356;2022-11-25T02:20:57;39.43;;;25.60;;
10341;SDS011;5216;54.602;18.356;2022-11-25T02:25:53;35.53;;;23.17;;
10341;SDS011;5216;54.602;18.356;2022-11-25T02:28:21;39.00;;;24.93;;
10341;SDS011;5216;54.602;18.356;2022-11-25T02:30:48;49.40;;;31.50;;
10341;SDS011;5216;54.602;18.356;2022-11-25T02:33:15;45.23;;;30.17;;
10341;SDS011;5216;54.602;18.356;2022-11-25T02:35:42;40.83;;;27.33;;
10341;SDS011;5216;54.602;18.356;2022-11-25T02:38:19;37.77;;;24.67;;
10341;SDS011;5216;54.602;18.356;2022-11-25T02:40:47;41.30;;;26.43;;
10341;SDS011;5216;54.602;18.356;2022-11-25T02:43:15;42.10;;;27.43;;
10341;SDS011;5216;54.602;18.356;2022-11-25T02:46:04;41.17;;;24.70;;
10341;SDS011;5216;54.602;18.356;2022-11-25T02:48:32;41.67;;;25.50;;
10341;SDS011;5216;54.602;18.356;2022-11-25T02:51:20;42.83;;;26.70;;
10341;SDS011;5216;54.602;18.356;2022-11-25T02:53:46;44.43;;;27.00;;
10341;SDS011;5216;54.602;18.356;2022-11-25T02:56:13;40.17;;;25.50;;
10341;SDS011;5216;54.602;18.356;2022-11-25T02:58:40;40.97;;;26.87;;
10341;SDS011;5216;54.602;18.356;2022-11-25T03:01:06;44.10;;;27.87;;
10341;SDS011;5216;54.602;18.356;2022-11-25T03:03:34;51.30;;;30.13;;
10341;SDS011;5216;54.602;18.356;2022-11-25T03:06:00;47.93;;;29.03;;
10341;SDS011;5216;54.602;18.356;2022-11-25T03:08:27;45.17;;;28.50;;
10341;SDS011;5216;54.602;18.356;2022-11-25T03:10:53;46.33;;;29.30;;
10341;SDS011;5216;54.602;18.356;2022-11-25T03:13:20;44.47;;;26.93;;
10341;SDS011;5216;54.602;18.356;2022-11-25T03:15:46;43.73;;;28.03;;
10341;SDS011;5216;54.602;18.356;2022-11-25T03:18:13;39.20;;;26.13;;
10341;SDS011;5216;54.602;18.356;2022-11-25T03:20:39;42.20;;;26.37;;
10341;SDS011;5216;54.602;18.356;2022-11-25T03:23:06;40.40;;;25.93;;
10341;SDS011;5216;54.602;18.356;2022-11-25T03:25:33;39.73;;;25.47;;
10341;SDS011;5216;54.602;18.356;2022-11-25T03:28:00;37.10;;;24.63;;
10341;SDS011;5216;54.602;18.356;2022-11-25T03:30:27;38.90;;;24.27;;
10341;SDS011;5216;54.602;18.356;2022-11-25T03:32:53;43.40;;;27.87;;
10341;SDS011;5216;54.602;18.356;2022-11-25T03:35:20;47.50;;;28.67;;
10341;SDS011;5216;54.602;18.356;2022-11-25T03:37:46;44.83;;;29.67;;
10341;SDS011;5216;54.602;18.356;2022-11-25T03:40:13;44.33;;;28.70;;
10341;SDS011;5216;54.602;18.356;2022-11-25T03:42:40;47.03;;;28.73;;
10341;SDS011;5216;54.602;18.356;2022-11-25T03:45:07;45.37;;;29.37;;
10341;SDS011;5216;54.602;18.356;2022-11-25T03:47:34;48.97;;;30.13;;
10341;SDS011;5216;54.602;18.356;2022-11-25T03:50:01;48.30;;;30.67;;
10341;SDS011;5216;54.602;18.356;2022-11-25T03:52:27;50.40;;;31.77;;
10341;SDS011;5216;54.602;18.356;2022-11-25T03:54:53;50.33;;;31.80;;
10341;SDS011;5216;54.602;18.356;2022-11-25T03:57:20;50.47;;;32.90;;
10341;SDS011;5216;54.602;18.356;2022-11-25T03:59:46;57.00;;;32.47;;
10341;SDS011;5216;54.602;18.356;2022-11-25T04:02:13;47.53;;;30.50;;
10341;SDS011;5216;54.602;18.356;2022-11-25T04:04:40;48.77;;;31.67;;
10341;SDS011;5216;54.602;18.356;2022-11-25T04:07:06;51.63;;;32.13;;
10341;SDS011;5216;54.602;18.356;2022-11-25T04:09:33;49.33;;;30.83;;
10341;SDS011;5216;54.602;18.356;2022-11-25T04:11:59;51.53;;;31.73;;
10341;SDS011;5216;54.602;18.356;2022-11-25T04:14:44;51.13;;;31.37;;
10341;SDS011;5216;54.602;18.356;2022-11-25T04:17:10;49.70;;;32.00;;
10341;SDS011;5216;54.602;18.356;2022-11-25T04:19:37;53.97;;;33.03;;
10341;SDS011;5216;54.602;18.356;2022-11-25T04:22:03;51.03;;;31.27;;
10341;SDS011;5216;54.602;18.356;2022-11-25T04:24:30;52.43;;;33.87;;
10341;SDS011;5216;54.602;18.356;2022-11-25T04:26:56;52.93;;;33.40;;
10341;SDS011;5216;54.602;18.356;2022-11-25T04:29:23;52.97;;;31.83;;
10341;SDS011;5216;54.602;18.356;2022-11-25T04:31:49;48.37;;;31.20;;
10341;SDS011;5216;54.602;18.356;2022-11-25T04:34:16;41.10;;;27.30;;
10341;SDS011;5216;54.602;18.356;2022-11-25T04:36:42;37.53;;;25.60;;
10341;SDS011;5216;54.602;18.356;2022-11-25T04:39:08;33.63;;;22.23;;
10341;SDS011;5216;54.602;18.356;2022-11-25T04:41:35;36.40;;;21.53;;
10341;SDS011;5216;54.602;18.356;2022-11-25T04:44:01;34.00;;;20.60;;
10341;SDS011;5216;54.602;18.356;2022-11-25T04:46:31;28.30;;;19.00;;
10341;SDS011;5216;54.602;18.356;2022-11-25T04:48:58;29.87;;;19.53;;
10341;SDS011;5216;54.602;18.356;2022-11-25T04:51:24;30.20;;;20.33;;
10341;SDS011;5216;54.602;18.356;2022-11-25T04:53:51;29.27;;;20.30;;
10341;SDS011;5216;54.602;18.356;2022-11-25T04:56:18;30.40;;;19.97;;
10341;SDS011;5216;54.602;18.356;2022-11-25T04:58:45;28.63;;;20.40;;
10341;SDS011;5216;54.602;18.356;2022-11-25T05:01:30;30.23;;;21.43;;
10341;SDS011;5216;54.602;18.356;2022-11-25T05:03:56;30.67;;;20.63;;
10341;SDS011;5216;54.602;18.356;2022-11-25T05:06:23;28.40;;;20.27;;
10341;SDS011;5216;54.602;18.356;2022-11-25T05:08:49;28.80;;;20.67;;
10341;SDS011;5216;54.602;18.356;2022-11-25T05:11:16;27.90;;;18.97;;
10341;SDS011;5216;54.602;18.356;2022-11-25T05:13:42;25.83;;;18.00;;
10341;SDS011;5216;54.602;18.356;2022-11-25T05:16:09;29.37;;;19.07;;
10341;SDS011;5216;54.602;18.356;2022-11-25T05:18:36;28.63;;;19.27;;
10341;SDS011;5216;54.602;18.356;2022-11-25T05:21:02;32.63;;;20.03;;
10341;SDS011;5216;54.602;18.356;2022-11-25T05:23:30;30.47;;;20.47;;
10341;SDS011;5216;54.602;18.356;2022-11-25T05:25:59;35.30;;;22.03;;
10341;SDS011;5216;54.602;18.356;2022-11-25T05:28:26;31.30;;;21.73;;
10341;SDS011;5216;54.602;18.356;2022-11-25T05:30:53;31.57;;;20.67;;
10341;SDS011;5216;54.602;18.356;2022-11-25T05:33:20;30.30;;;21.03;;
10341;SDS011;5216;54.602;18.356;2022-11-25T05:35:52;33.90;;;22.63;;
10341;SDS011;5216;54.602;18.356;2022-11-25T05:38:19;35.73;;;22.37;;
10341;SDS011;5216;54.602;18.356;2022-11-25T05:40:45;31.37;;;20.57;;
10341;SDS011;5216;54.602;18.356;2022-11-25T05:43:12;28.97;;;21.73;;
10341;SDS011;5216;54.602;18.356;2022-11-25T05:45:38;29.33;;;21.27;;
10341;SDS011;5216;54.602;18.356;2022-11-25T05:48:05;24.77;;;18.17;;
10341;SDS011;5216;54.602;18.356;2022-11-25T05:50:31;25.67;;;18.90;;
10341;SDS011;5216;54.602;18.356;2022-11-25T05:52:58;25.63;;;19.43;;
10341;SDS011;5216;54.602;18.356;2022-11-25T05:55:24;25.87;;;18.10;;
10341;SDS011;5216;54.602;18.356;2022-11-25T05:57:50;42.93;;;29.90;;
10341;SDS011;5216;54.602;18.356;2022-11-25T06:00:17;86.87;;;58.67;;
10341;SDS011;5216;54.602;18.356;2022-11-25T06:02:51;52.90;;;38.50;;
10341;SDS011;5216;54.602;18.356;2022-11-25T06:05:18;70.83;;;49.30;;
10341;SDS011;5216;54.602;18.356;2022-11-25T06:07:44;28.07;;;20.57;;
10341;SDS011;5216;54.602;18.356;2022-11-25T06:10:11;32.23;;;23.00;;
10341;SDS011;5216;54.602;18.356;2022-11-25T06:12:37;29.73;;;20.07;;
10341;SDS011;5216;54.602;18.356;2022-11-25T06:15:04;34.90;;;24.40;;
10341;SDS011;5216;54.602;18.356;2022-11-25T06:17:31;49.17;;;34.57;;
10341;SDS011;5216;54.602;18.356;2022-11-25T06:19:57;39.97;;;27.40;;
10341;SDS011;5216;54.602;18.356;2022-11-25T06:22:24;37.03;;;25.57;;
10341;SDS011;5216;54.602;18.356;2022-11-25T06:24:50;39.60;;;28.13;;
10341;SDS011;5216;54.602;18.356;2022-11-25T06:27:27;45.37;;;27.23;;
10341;SDS011;5216;54.602;18.356;2022-11-25T06:30:13;34.30;;;23.57;;
10341;SDS011;5216;54.602;18.356;2022-11-25T06:32:40;34.07;;;23.47;;
10341;SDS011;5216;54.602;18.356;2022-11-25T06:35:07;43.07;;;29.67;;
10341;SDS011;5216;54.602;18.356;2022-11-25T06:37:33;45.30;;;28.53;;
10341;SDS011;5216;54.602;18.356;2022-11-25T06:40:00;36.90;;;25.47;;
10341;SDS011;5216;54.602;18.356;2022-11-25T06:42:26;35.67;;;23.97;;
10341;SDS011;5216;54.602;18.356;2022-11-25T06:44:53;34.07;;;22.83;;
10341;SDS011;5216;54.602;18.356;2022-11-25T06:47:20;34.20;;;24.03;;
10341;SDS011;5216;54.602;18.356;2022-11-25T06:49:46;36.87;;;23.87;;
10341;SDS011;5216;54.602;18.356;2022-11-25T06:52:12;37.50;;;24.60;;
10341;SDS011;5216;54.602;18.356;2022-11-25T06:54:39;40.07;;;24.97;;
10341;SDS011;5216;54.602;18.356;2022-11-25T06:57:07;37.20;;;24.73;;
10341;SDS011;5216;54.602;18.356;2022-11-25T06:59:33;35.67;;;24.10;;
10341;SDS011;5216;54.602;18.356;2022-11-25T07:02:00;40.37;;;26.70;;
10341;SDS011;5216;54.602;18.356;2022-11-25T07:04:27;40.30;;;27.90;;
10341;SDS011;5216;54.602;18.356;2022-11-25T07:06:53;40.43;;;27.30;;
10341;SDS011;5216;54.602;18.356;2022-11-25T07:09:20;38.03;;;26.27;;
10341;SDS011;5216;54.602;18.356;2022-11-25T07:11:47;41.70;;;27.00;;
10341;SDS011;5216;54.602;18.356;2022-11-25T07:14:14;41.37;;;27.73;;
10341;SDS011;5216;54.602;18.356;2022-11-25T07:16:42;36.60;;;24.57;;
10341;SDS011;5216;54.602;18.356;2022-11-25T07:19:10;37.33;;;25.43;;
10341;SDS011;5216;54.602;18.356;2022-11-25T07:21:36;33.67;;;23.40;;
10341;SDS011;5216;54.602;18.356;2022-11-25T07:24:04;31.77;;;24.20;;
10341;SDS011;5216;54.602;18.356;2022-11-25T07:26:35;35.63;;;23.77;;
10341;SDS011;5216;54.602;18.356;2022-11-25T07:29:04;32.80;;;22.10;;
10341;SDS011;5216;54.602;18.356;2022-11-25T07:31:48;31.63;;;22.83;;
10341;SDS011;5216;54.602;18.356;2022-11-25T07:34:16;32.60;;;22.50;;
10341;SDS011;5216;54.602;18.356;2022-11-25T07:36:48;32.47;;;20.97;;
10341;SDS011;5216;54.602;18.356;2022-11-25T07:39:19;31.17;;;21.93;;
10341;SDS011;5216;54.602;18.356;2022-11-25T07:41:49;37.83;;;22.33;;
10341;SDS011;5216;54.602;18.356;2022-11-25T07:44:16;33.33;;;19.80;;
10341;SDS011;5216;54.602;18.356;2022-11-25T07:46:43;33.70;;;19.27;;
10341;SDS011;5216;54.602;18.356;2022-11-25T07:49:11;28.83;;;18.30;;
10341;SDS011;5216;54.602;18.356;2022-11-25T07:51:39;28.50;;;18.53;;
10341;SDS011;5216;54.602;18.356;2022-11-25T07:54:07;37.07;;;21.80;;
10341;SDS011;5216;54.602;18.356;2022-11-25T07:56:34;36.93;;;23.53;;
10341;SDS011;5216;54.602;18.356;2022-11-25T07:59:01;35.53;;;23.73;;
10341;SDS011;5216;54.602;18.356;2022-11-25T08:01:27;39.33;;;25.13;;
10341;SDS011;5216;54.602;18.356;2022-11-25T08:03:54;35.70;;;23.23;;
10341;SDS011;5216;54.602;18.356;2022-11-25T08:06:21;37.17;;;24.33;;
10341;SDS011;5216;54.602;18.356;2022-11-25T08:08:48;33.97;;;25.33;;
10341;SDS011;5216;54.602;18.356;2022-11-25T08:11:16;36.33;;;26.77;;
10341;SDS011;5216;54.602;18.356;2022-11-25T08:13:44;39.43;;;26.27;;
10341;SDS011;5216;54.602;18.356;2022-11-25T08:16:14;41.93;;;30.60;;
10341;SDS011;5216;54.602;18.356;2022-11-25T08:18:41;45.43;;;30.63;;
10341;SDS011;5216;54.602;18.356;2022-11-25T08:21:08;47.90;;;32.37;;
10341;SDS011;5216;54.602;18.356;2022-11-25T08:23:36;45.83;;;31.60;;
10341;SDS011;5216;54.602;18.356;2022-11-25T08:26:03;47.20;;;33.10;;
10341;SDS011;5216;54.602;18.356;2022-11-25T08:28:30;48.33;;;32.97;;
10341;SDS011;5216;54.602;18.356;2022-11-25T08:31:04;50.43;;;33.50;;
10341;SDS011;5216;54.602;18.356;2022-11-25T08:33:31;47.90;;;31.93;;
10341;SDS011;5216;54.602;18.356;2022-11-25T08:35:57;48.37;;;32.30;;
10341;SDS011;5216;54.602;18.356;2022-11-25T08:38:24;52.83;;;33.53;;
10341;SDS011;5216;54.602;18.356;2022-11-25T08:40:50;53.60;;;33.03;;
10341;SDS011;5216;54.602;18.356;2022-11-25T08:43:17;49.90;;;34.77;;
10341;SDS011;5216;54.602;18.356;2022-11-25T08:45:50;57.07;;;37.27;;
10341;SDS011;5216;54.602;18.356;2022-11-25T08:48:17;56.03;;;38.60;;
10341;SDS011;5216;54.602;18.356;2022-11-25T08:50:49;59.63;;;40.60;;
10341;SDS011;5216;54.602;18.356;2022-11-25T08:53:15;61.17;;;39.90;;
10341;SDS011;5216;54.602;18.356;2022-11-25T08:55:42;59.83;;;38.70;;
10341;SDS011;5216;54.602;18.356;2022-11-25T08:58:08;60.17;;;43.00;;
10341;SDS011;5216;54.602;18.356;2022-11-25T09:00:36;62.97;;;40.07;;
10341;SDS011;5216;54.602;18.356;2022-11-25T09:03:03;59.87;;;39.80;;
10341;SDS011;5216;54.602;18.356;2022-11-25T09:05:30;60.60;;;40.00;;
10341;SDS011;5216;54.602;18.356;2022-11-25T09:08:01;54.57;;;35.07;;
10341;SDS011;5216;54.602;18.356;2022-11-25T09:10:29;48.97;;;31.80;;
10341;SDS011;5216;54.602;18.356;2022-11-25T09:12:55;47.80;;;32.50;;
10341;SDS011;5216;54.602;18.356;2022-11-25T09:15:22;48.20;;;31.23;;
10341;SDS011;5216;54.602;18.356;2022-11-25T09:17:56;42.83;;;29.23;;
10341;SDS011;5216;54.602;18.356;2022-11-25T09:20:22;49.47;;;31.97;;
10341;SDS011;5216;54.602;18.356;2022-11-25T09:22:49;53.23;;;35.17;;
10341;SDS011;5216;54.602;18.356;2022-11-25T09:25:15;50.30;;;36.30;;
10341;SDS011;5216;54.602;18.356;2022-11-25T09:27:41;55.40;;;35.97;;
10341;SDS011;5216;54.602;18.356;2022-11-25T09:30:08;49.97;;;35.67;;
10341;SDS011;5216;54.602;18.356;2022-11-25T09:32:35;46.43;;;33.43;;
10341;SDS011;5216;54.602;18.356;2022-11-25T09:35:01;49.37;;;33.90;;
10341;SDS011;5216;54.602;18.356;2022-11-25T09:37:28;48.00;;;33.50;;
10341;SDS011;5216;54.602;18.356;2022-11-25T09:39:54;51.63;;;34.53;;
10341;SDS011;5216;54.602;18.356;2022-11-25T09:53:10;48.63;;;30.13;;
10341;SDS011;5216;54.602;18.356;2022-11-25T09:55:41;48.37;;;29.83;;
10341;SDS011;5216;54.602;18.356;2022-11-25T09:58:15;48.70;;;31.50;;
10341;SDS011;5216;54.602;18.356;2022-11-25T10:00:46;48.63;;;30.60;;
10341;SDS011;5216;54.602;18.356;2022-11-25T10:05:45;49.07;;;31.33;;
10341;SDS011;5216;54.602;18.356;2022-11-25T10:08:14;51.23;;;32.77;;
10341;SDS011;5216;54.602;18.356;2022-11-25T10:10:48;47.90;;;32.43;;
10341;SDS011;5216;54.602;18.356;2022-11-25T10:13:18;47.50;;;31.13;;
10341;SDS011;5216;54.602;18.356;2022-11-25T10:15:48;53.33;;;33.43;;
10341;SDS011;5216;54.602;18.356;2022-11-25T10:20:44;49.43;;;34.30;;
10341;SDS011;5216;54.602;18.356;2022-11-25T10:23:22;50.60;;;34.30;;
10341;SDS011;5216;54.602;18.356;2022-11-25T10:25:58;54.97;;;34.57;;
10341;SDS011;5216;54.602;18.356;2022-11-25T10:28:30;56.30;;;36.10;;
10341;SDS011;5216;54.602;18.356;2022-11-25T10:31:03;51.63;;;35.33;;
10341;SDS011;5216;54.602;18.356;2022-11-25T10:33:32;51.03;;;34.47;;
10341;SDS011;5216;54.602;18.356;2022-11-25T10:38:30;53.50;;;34.93;;
10341;SDS011;5216;54.602;18.356;2022-11-25T10:41:01;51.40;;;32.70;;
10341;SDS011;5216;54.602;18.356;2022-11-25T10:43:28;46.33;;;33.07;;
10341;SDS011;5216;54.602;18.356;2022-11-25T10:53:36;49.53;;;29.27;;
10341;SDS011;5216;54.602;18.356;2022-11-25T10:58:33;47.63;;;29.57;;
10341;SDS011;5216;54.602;18.356;2022-11-25T11:01:02;42.30;;;26.97;;
10341;SDS011;5216;54.602;18.356;2022-11-25T11:03:28;43.47;;;26.77;;
10341;SDS011;5216;54.602;18.356;2022-11-25T11:05:55;52.50;;;35.57;;
10341;SDS011;5216;54.602;18.356;2022-11-25T11:08:25;42.50;;;26.27;;
10341;SDS011;5216;54.602;18.356;2022-11-25T11:13:34;43.97;;;25.03;;
10341;SDS011;5216;54.602;18.356;2022-11-25T11:16:00;41.97;;;25.27;;
10341;SDS011;5216;54.602;18.356;2022-11-25T11:18:48;38.83;;;24.13;;
10341;SDS011;5216;54.602;18.356;2022-11-25T11:21:21;36.93;;;24.17;;
10341;SDS011;5216;54.602;18.356;2022-11-25T11:23:49;38.77;;;23.73;;
10341;SDS011;5216;54.602;18.356;2022-11-25T11:26:22;35.87;;;23.47;;
10341;SDS011;5216;54.602;18.356;2022-11-25T11:28:55;36.47;;;23.57;;
10341;SDS011;5216;54.602;18.356;2022-11-25T11:31:22;40.37;;;25.13;;
10341;SDS011;5216;54.602;18.356;2022-11-25T11:33:59;41.13;;;25.13;;
10341;SDS011;5216;54.602;18.356;2022-11-25T11:39:08;40.93;;;27.50;;
10341;SDS011;5216;54.602;18.356;2022-11-25T11:44:16;51.07;;;32.73;;
10341;SDS011;5216;54.602;18.356;2022-11-25T11:52:03;49.53;;;32.73;;
10341;SDS011;5216;54.602;18.356;2022-11-25T11:54:43;45.93;;;31.93;;
10341;SDS011;5216;54.602;18.356;2022-11-25T11:59:55;46.73;;;30.90;;
10341;SDS011;5216;54.602;18.356;2022-11-25T12:02:59;44.40;;;30.03;;
10341;SDS011;5216;54.602;18.356;2022-11-25T12:05:18;46.30;;;29.90;;
10341;SDS011;5216;54.602;18.356;2022-11-25T12:07:52;49.77;;;30.80;;
10341;SDS011;5216;54.602;18.356;2022-11-25T12:13:03;47.20;;;30.97;;
10341;SDS011;5216;54.602;18.356;2022-11-25T12:23:21;47.97;;;32.30;;
10341;SDS011;5216;54.602;18.356;2022-11-25T12:25:49;49.00;;;30.63;;
10341;SDS011;5216;54.602;18.356;2022-11-25T12:28:20;50.37;;;32.47;;
10341;SDS011;5216;54.602;18.356;2022-11-25T12:31:03;50.73;;;32.20;;
10341;SDS011;5216;54.602;18.356;2022-11-25T12:41:23;48.57;;;33.70;;
10341;SDS011;5216;54.602;18.356;2022-11-25T12:44:06;44.43;;;30.97;;
10341;SDS011;5216;54.602;18.356;2022-11-25T12:49:06;42.70;;;28.43;;
10341;SDS011;5216;54.602;18.356;2022-11-25T12:51:45;41.13;;;27.70;;
10341;SDS011;5216;54.602;18.356;2022-11-25T13:05:05;44.60;;;29.40;;
10341;SDS011;5216;54.602;18.356;2022-11-25T13:08:02;81.50;;;55.63;;
10341;SDS011;5216;54.602;18.356;2022-11-25T13:15:37;56.60;;;38.33;;
10341;SDS011;5216;54.602;18.356;2022-11-25T13:18:15;44.37;;;31.33;;
10341;SDS011;5216;54.602;18.356;2022-11-25T13:20:46;42.70;;;28.10;;
10341;SDS011;5216;54.602;18.356;2022-11-25T13:25:45;43.50;;;31.67;;
10341;SDS011;5216;54.602;18.356;2022-11-25T13:28:31;34.73;;;24.00;;
10341;SDS011;5216;54.602;18.356;2022-11-25T13:36:23;35.47;;;24.67;;
10341;SDS011;5216;54.602;18.356;2022-11-25T13:46:42;41.90;;;26.67;;
10341;SDS011;5216;54.602;18.356;2022-11-25T13:51:52;49.87;;;32.23;;
10341;SDS011;5216;54.602;18.356;2022-11-25T13:54:20;51.83;;;32.90;;
10341;SDS011;5216;54.602;18.356;2022-11-25T13:56:58;53.27;;;35.70;;
10341;SDS011;5216;54.602;18.356;2022-11-25T13:59:36;51.20;;;33.90;;
10341;SDS011;5216;54.602;18.356;2022-11-25T14:02:23;49.20;;;31.63;;
10341;SDS011;5216;54.602;18.356;2022-11-25T14:07:29;40.13;;;27.90;;
10341;SDS011;5216;54.602;18.356;2022-11-25T14:10:17;42.47;;;28.63;;
10341;SDS011;5216;54.602;18.356;2022-11-25T14:13:08;42.33;;;25.73;;
10341;SDS011;5216;54.602;18.356;2022-11-25T14:18:20;40.40;;;27.20;;
10341;SDS011;5216;54.602;18.356;2022-11-25T14:21:23;36.37;;;25.07;;
10341;SDS011;5216;54.602;18.356;2022-11-25T14:26:49;41.87;;;27.97;;
10341;SDS011;5216;54.602;18.356;2022-11-25T14:31:45;52.37;;;35.80;;
10341;SDS011;5216;54.602;18.356;2022-11-25T14:34:23;47.27;;;31.83;;
10341;SDS011;5216;54.602;18.356;2022-11-25T14:36:53;53.53;;;35.57;;
10341;SDS011;5216;54.602;18.356;2022-11-25T14:39:23;53.53;;;34.17;;
10341;SDS011;5216;54.602;18.356;2022-11-25T14:44:45;74.00;;;44.20;;
10341;SDS011;5216;54.602;18.356;2022-11-25T14:47:12;45.53;;;29.73;;
10341;SDS011;5216;54.602;18.356;2022-11-25T14:49:42;65.83;;;39.43;;
10341;SDS011;5216;54.602;18.356;2022-11-25T14:52:35;54.67;;;35.13;;
10341;SDS011;5216;54.602;18.356;2022-11-25T14:55:03;53.83;;;37.37;;
10341;SDS011;5216;54.602;18.356;2022-11-25T14:57:32;50.37;;;35.23;;
10341;SDS011;5216;54.602;18.356;2022-11-25T15:00:06;48.87;;;32.70;;
10341;SDS011;5216;54.602;18.356;2022-11-25T15:02:34;65.57;;;45.13;;
10341;SDS011;5216;54.602;18.356;2022-11-25T15:07:42;75.37;;;50.47;;
10341;SDS011;5216;54.602;18.356;2022-11-25T15:10:29;74.60;;;50.57;;
10341;SDS011;5216;54.602;18.356;2022-11-25T15:12:56;66.43;;;44.83;;
10341;SDS011;5216;54.602;18.356;2022-11-25T15:15:24;69.90;;;44.67;;
10341;SDS011;5216;54.602;18.356;2022-11-25T15:17:51;64.40;;;43.77;;
10341;SDS011;5216;54.602;18.356;2022-11-25T15:20:20;52.47;;;37.20;;
10341;SDS011;5216;54.602;18.356;2022-11-25T15:22:50;44.50;;;31.90;;
10341;SDS011;5216;54.602;18.356;2022-11-25T15:25:17;45.67;;;32.23;;
10341;SDS011;5216;54.602;18.356;2022-11-25T15:27:45;51.50;;;34.50;;
10341;SDS011;5216;54.602;18.356;2022-11-25T15:30:31;50.03;;;34.23;;
10341;SDS011;5216;54.602;18.356;2022-11-25T15:32:59;45.17;;;31.27;;
10341;SDS011;5216;54.602;18.356;2022-11-25T15:35:26;52.07;;;34.67;;
10341;SDS011;5216;54.602;18.356;2022-11-25T15:37:53;51.80;;;36.10;;
10341;SDS011;5216;54.602;18.356;2022-11-25T15:42:58;53.40;;;36.07;;
10341;SDS011;5216;54.602;18.356;2022-11-25T15:45:26;55.30;;;36.40;;
10341;SDS011;5216;54.602;18.356;2022-11-25T15:47:55;49.40;;;32.57;;
10341;SDS011;5216;54.602;18.356;2022-11-25T15:50:23;46.87;;;31.90;;
10341;SDS011;5216;54.602;18.356;2022-11-25T15:52:51;57.23;;;36.30;;
10341;SDS011;5216;54.602;18.356;2022-11-25T15:55:32;47.50;;;33.93;;
10341;SDS011;5216;54.602;18.356;2022-11-25T16:01:20;44.27;;;30.20;;
10341;SDS011;5216;54.602;18.356;2022-11-25T16:03:46;55.37;;;35.27;;
10341;SDS011;5216;54.602;18.356;2022-11-25T16:06:23;53.70;;;37.77;;
10341;SDS011;5216;54.602;18.356;2022-11-25T16:08:51;64.33;;;41.27;;
10341;SDS011;5216;54.602;18.356;2022-11-25T16:11:22;60.40;;;41.13;;
10341;SDS011;5216;54.602;18.356;2022-11-25T16:13:51;57.90;;;37.20;;
10341;SDS011;5216;54.602;18.356;2022-11-25T16:16:19;55.20;;;38.50;;
10341;SDS011;5216;54.602;18.356;2022-11-25T16:21:20;61.43;;;41.43;;
10341;SDS011;5216;54.602;18.356;2022-11-25T16:23:48;59.87;;;40.73;;
10341;SDS011;5216;54.602;18.356;2022-11-25T16:29:15;64.43;;;44.77;;
10341;SDS011;5216;54.602;18.356;2022-11-25T16:31:47;65.33;;;43.50;;
10341;SDS011;5216;54.602;18.356;2022-11-25T16:34:15;69.50;;;48.27;;
10341;SDS011;5216;54.602;18.356;2022-11-25T16:36:42;57.40;;;39.57;;
10341;SDS011;5216;54.602;18.356;2022-11-25T16:39:09;56.60;;;40.43;;
10341;SDS011;5216;54.602;18.356;2022-11-25T16:41:36;89.17;;;61.00;;
10341;SDS011;5216;54.602;18.356;2022-11-25T16:44:03;64.80;;;43.13;;
10341;SDS011;5216;54.602;18.356;2022-11-25T16:46:34;66.93;;;45.93;;
10341;SDS011;5216;54.602;18.356;2022-11-25T16:49:02;97.13;;;64.00;;
10341;SDS011;5216;54.602;18.356;2022-11-25T16:51:29;72.10;;;42.87;;